sensor_id;sensor_type;location;lat;lon;timestamp;P1;durP1;ratioP1;P2;durP2;ratioP2
65896;SDS011;52677;50.898;10.854;2023-06-05T00:00:00;3.25;;;2.35;;
65896;SDS011;52677;50.898;10.854;2023-06-05T00:02:00;4.80;;;2.33;;
65896;SDS011;52677;50.898;10.854;2023-06-05T00:04:01;3.22;;;2.20;;
65896;SDS011;52677;50.898;10.854;2023-06-05T00:06:01;4.10;;;2.63;;
65896;SDS011;52677;50.898;10.854;2023-06-05T00:08:01;3.63;;;2.40;;
65896;SDS011;52677;50.898;10.854;2023-06-05T00:10:02;4.47;;;2.00;;
65896;SDS011;52677;50.898;10.854;2023-06-05T00:12:02;3.50;;;2.30;;
65896;SDS011;52677;50.898;10.854;2023-06-05T00:14:03;6.90;;;2.70;;
65896;SDS011;52677;50.898;10.854;2023-06-05T00:16:03;3.35;;;2.13;;
65896;SDS011;52677;50.898;10.854;2023-06-05T00:18:04;5.10;;;2.38;;
65896;SDS011;52677;50.898;10.854;2023-06-05T00:20:05;3.30;;;2.08;;
65896;SDS011;52677;50.898;10.854;2023-06-05T00:22:09;3.42;;;2.40;;
65896;SDS011;52677;50.898;10.854;2023-06-05T00:24:09;4.38;;;2.17;;
65896;SDS011;52677;50.898;10.854;2023-06-05T00:26:10;5.00;;;2.35;;
65896;SDS011;52677;50.898;10.854;2023-06-05T00:28:10;6.03;;;2.35;;
65896;SDS011;52677;50.898;10.854;2023-06-05T00:30:11;3.17;;;2.05;;
65896;SDS011;52677;50.898;10.854;2023-06-05T00:32:11;3.45;;;2.10;;
65896;SDS011;52677;50.898;10.854;2023-06-05T00:34:12;3.05;;;2.13;;
65896;SDS011;52677;50.898;10.854;2023-06-05T00:36:13;4.28;;;2.20;;
65896;SDS011;52677;50.898;10.854;2023-06-05T00:38:14;3.97;;;2.20;;
65896;SDS011;52677;50.898;10.854;2023-06-05T00:40:14;2.45;;;1.92;;
65896;SDS011;52677;50.898;10.854;2023-06-05T00:42:15;3.10;;;2.08;;
65896;SDS011;52677;50.898;10.854;2023-06-05T00:44:17;3.63;;;2.08;;
65896;SDS011;52677;50.898;10.854;2023-06-05T00:48:18;3.78;;;2.70;;
65896;SDS011;52677;50.898;10.854;2023-06-05T00:50:19;3.55;;;2.38;;
65896;SDS011;52677;50.898;10.854;2023-06-05T00:52:21;4.38;;;2.08;;
65896;SDS011;52677;50.898;10.854;2023-06-05T00:54:22;6.07;;;2.40;;
65896;SDS011;52677;50.898;10.854;2023-06-05T00:56:23;2.92;;;2.13;;
65896;SDS011;52677;50.898;10.854;2023-06-05T00:58:23;2.92;;;2.10;;
65896;SDS011;52677;50.898;10.854;2023-06-05T01:00:25;4.15;;;2.30;;
65896;SDS011;52677;50.898;10.854;2023-06-05T01:02:26;3.28;;;2.10;;
65896;SDS011;52677;50.898;10.854;2023-06-05T01:04:27;3.13;;;2.13;;
65896;SDS011;52677;50.898;10.854;2023-06-05T01:06:32;3.80;;;1.98;;
65896;SDS011;52677;50.898;10.854;2023-06-05T01:08:35;3.20;;;2.08;;
65896;SDS011;52677;50.898;10.854;2023-06-05T01:10:39;5.68;;;2.50;;
65896;SDS011;52677;50.898;10.854;2023-06-05T01:14:59;3.03;;;2.20;;
65896;SDS011;52677;50.898;10.854;2023-06-05T01:17:02;3.38;;;2.35;;
65896;SDS011;52677;50.898;10.854;2023-06-05T01:19:04;4.38;;;2.47;;
65896;SDS011;52677;50.898;10.854;2023-06-05T01:21:12;4.03;;;2.28;;
65896;SDS011;52677;50.898;10.854;2023-06-05T01:23:13;4.25;;;1.92;;
65896;SDS011;52677;50.898;10.854;2023-06-05T01:25:13;5.75;;;2.50;;
65896;SDS011;52677;50.898;10.854;2023-06-05T01:27:14;2.83;;;2.30;;
65896;SDS011;52677;50.898;10.854;2023-06-05T01:29:16;2.97;;;2.10;;
65896;SDS011;52677;50.898;10.854;2023-06-05T01:31:17;3.33;;;2.35;;
65896;SDS011;52677;50.898;10.854;2023-06-05T01:33:40;2.75;;;2.25;;
65896;SDS011;52677;50.898;10.854;2023-06-05T01:35:49;2.90;;;2.20;;
65896;SDS011;52677;50.898;10.854;2023-06-05T01:37:51;6.40;;;2.40;;
65896;SDS011;52677;50.898;10.854;2023-06-05T01:39:53;5.90;;;2.80;;
65896;SDS011;52677;50.898;10.854;2023-06-05T01:41:55;2.85;;;2.25;;
65896;SDS011;52677;50.898;10.854;2023-06-05T01:43:58;3.03;;;2.30;;
65896;SDS011;52677;50.898;10.854;2023-06-05T01:46:00;5.40;;;2.53;;
65896;SDS011;52677;50.898;10.854;2023-06-05T01:48:01;3.10;;;2.17;;
65896;SDS011;52677;50.898;10.854;2023-06-05T01:50:03;3.03;;;2.25;;
65896;SDS011;52677;50.898;10.854;2023-06-05T01:54:07;5.82;;;2.60;;
65896;SDS011;52677;50.898;10.854;2023-06-05T01:56:07;3.38;;;2.47;;
65896;SDS011;52677;50.898;10.854;2023-06-05T01:58:08;4.05;;;2.20;;
65896;SDS011;52677;50.898;10.854;2023-06-05T02:00:09;2.83;;;2.20;;
65896;SDS011;52677;50.898;10.854;2023-06-05T02:02:13;3.80;;;2.47;;
65896;SDS011;52677;50.898;10.854;2023-06-05T02:04:14;3.10;;;2.03;;
65896;SDS011;52677;50.898;10.854;2023-06-05T02:06:18;3.53;;;2.50;;
65896;SDS011;52677;50.898;10.854;2023-06-05T02:08:19;2.70;;;2.05;;
65896;SDS011;52677;50.898;10.854;2023-06-05T02:10:22;4.68;;;2.38;;
65896;SDS011;52677;50.898;10.854;2023-06-05T02:12:23;3.33;;;2.30;;
65896;SDS011;52677;50.898;10.854;2023-06-05T02:14:26;3.22;;;2.15;;
65896;SDS011;52677;50.898;10.854;2023-06-05T02:16:27;3.50;;;2.20;;
65896;SDS011;52677;50.898;10.854;2023-06-05T02:18:27;6.05;;;2.95;;
65896;SDS011;52677;50.898;10.854;2023-06-05T02:20:29;4.68;;;2.50;;
65896;SDS011;52677;50.898;10.854;2023-06-05T02:22:31;3.72;;;2.10;;
65896;SDS011;52677;50.898;10.854;2023-06-05T02:24:31;4.00;;;2.63;;
65896;SDS011;52677;50.898;10.854;2023-06-05T02:26:32;15.35;;;4.47;;
65896;SDS011;52677;50.898;10.854;2023-06-05T02:28:32;4.85;;;2.65;;
65896;SDS011;52677;50.898;10.854;2023-06-05T02:30:32;4.40;;;2.53;;
65896;SDS011;52677;50.898;10.854;2023-06-05T02:32:33;4.05;;;2.63;;
65896;SDS011;52677;50.898;10.854;2023-06-05T02:34:33;4.28;;;2.40;;
65896;SDS011;52677;50.898;10.854;2023-06-05T02:36:33;3.45;;;2.10;;
65896;SDS011;52677;50.898;10.854;2023-06-05T02:38:35;4.20;;;2.00;;
65896;SDS011;52677;50.898;10.854;2023-06-05T02:40:35;4.78;;;2.35;;
65896;SDS011;52677;50.898;10.854;2023-06-05T02:42:36;4.13;;;2.28;;
65896;SDS011;52677;50.898;10.854;2023-06-05T02:44:37;3.88;;;2.20;;
65896;SDS011;52677;50.898;10.854;2023-06-05T02:46:37;3.28;;;2.70;;
65896;SDS011;52677;50.898;10.854;2023-06-05T02:48:38;3.88;;;2.25;;
65896;SDS011;52677;50.898;10.854;2023-06-05T02:50:38;2.88;;;2.00;;
65896;SDS011;52677;50.898;10.854;2023-06-05T02:52:38;4.05;;;2.20;;
65896;SDS011;52677;50.898;10.854;2023-06-05T02:54:39;7.60;;;2.40;;
65896;SDS011;52677;50.898;10.854;2023-06-05T02:56:40;6.18;;;2.10;;
65896;SDS011;52677;50.898;10.854;2023-06-05T02:58:40;3.70;;;2.42;;
65896;SDS011;52677;50.898;10.854;2023-06-05T03:00:43;4.30;;;2.92;;
65896;SDS011;52677;50.898;10.854;2023-06-05T03:02:44;4.53;;;2.20;;
65896;SDS011;52677;50.898;10.854;2023-06-05T03:04:48;4.07;;;2.38;;
65896;SDS011;52677;50.898;10.854;2023-06-05T03:06:53;2.85;;;2.35;;
65896;SDS011;52677;50.898;10.854;2023-06-05T03:08:56;4.28;;;2.40;;
65896;SDS011;52677;50.898;10.854;2023-06-05T03:10:57;3.70;;;2.22;;
65896;SDS011;52677;50.898;10.854;2023-06-05T03:12:57;4.15;;;2.50;;
65896;SDS011;52677;50.898;10.854;2023-06-05T03:14:57;4.93;;;2.67;;
65896;SDS011;52677;50.898;10.854;2023-06-05T03:16:57;5.13;;;2.47;;
65896;SDS011;52677;50.898;10.854;2023-06-05T03:19:00;3.80;;;2.35;;
65896;SDS011;52677;50.898;10.854;2023-06-05T03:21:01;3.75;;;2.70;;
65896;SDS011;52677;50.898;10.854;2023-06-05T03:23:01;5.00;;;2.58;;
65896;SDS011;52677;50.898;10.854;2023-06-05T03:25:02;4.35;;;2.40;;
65896;SDS011;52677;50.898;10.854;2023-06-05T03:27:03;4.47;;;2.30;;
65896;SDS011;52677;50.898;10.854;2023-06-05T03:29:04;3.40;;;2.50;;
65896;SDS011;52677;50.898;10.854;2023-06-05T03:31:05;4.70;;;2.80;;
65896;SDS011;52677;50.898;10.854;2023-06-05T03:33:05;4.00;;;2.58;;
65896;SDS011;52677;50.898;10.854;2023-06-05T03:35:06;2.83;;;2.00;;
65896;SDS011;52677;50.898;10.854;2023-06-05T03:37:07;4.70;;;2.45;;
65896;SDS011;52677;50.898;10.854;2023-06-05T03:39:07;3.85;;;2.38;;
65896;SDS011;52677;50.898;10.854;2023-06-05T03:41:08;5.00;;;2.60;;
65896;SDS011;52677;50.898;10.854;2023-06-05T03:43:08;5.72;;;2.47;;
65896;SDS011;52677;50.898;10.854;2023-06-05T03:45:09;3.92;;;2.20;;
65896;SDS011;52677;50.898;10.854;2023-06-05T03:47:09;3.67;;;2.40;;
65896;SDS011;52677;50.898;10.854;2023-06-05T03:49:10;4.95;;;2.60;;
65896;SDS011;52677;50.898;10.854;2023-06-05T03:51:11;3.53;;;1.90;;
65896;SDS011;52677;50.898;10.854;2023-06-05T03:53:11;4.47;;;2.35;;
65896;SDS011;52677;50.898;10.854;2023-06-05T03:55:13;3.30;;;2.42;;
65896;SDS011;52677;50.898;10.854;2023-06-05T03:57:13;2.78;;;2.30;;
65896;SDS011;52677;50.898;10.854;2023-06-05T03:59:15;4.90;;;2.30;;
65896;SDS011;52677;50.898;10.854;2023-06-05T04:01:19;3.88;;;2.40;;
65896;SDS011;52677;50.898;10.854;2023-06-05T04:03:19;7.88;;;3.78;;
65896;SDS011;52677;50.898;10.854;2023-06-05T04:05:20;4.93;;;2.50;;
65896;SDS011;52677;50.898;10.854;2023-06-05T04:07:21;3.75;;;2.30;;
65896;SDS011;52677;50.898;10.854;2023-06-05T04:09:21;2.83;;;2.53;;
65896;SDS011;52677;50.898;10.854;2023-06-05T04:11:21;3.10;;;2.20;;
65896;SDS011;52677;50.898;10.854;2023-06-05T04:13:22;3.20;;;2.38;;
65896;SDS011;52677;50.898;10.854;2023-06-05T04:15:23;3.92;;;2.25;;
65896;SDS011;52677;50.898;10.854;2023-06-05T04:17:23;7.60;;;3.05;;
65896;SDS011;52677;50.898;10.854;2023-06-05T04:19:23;7.47;;;3.25;;
65896;SDS011;52677;50.898;10.854;2023-06-05T04:21:24;5.93;;;2.83;;
65896;SDS011;52677;50.898;10.854;2023-06-05T04:23:24;9.98;;;2.90;;
65896;SDS011;52677;50.898;10.854;2023-06-05T04:25:24;11.57;;;3.00;;
65896;SDS011;52677;50.898;10.854;2023-06-05T04:27:28;6.85;;;3.03;;
65896;SDS011;52677;50.898;10.854;2023-06-05T04:29:29;7.45;;;2.70;;
65896;SDS011;52677;50.898;10.854;2023-06-05T04:31:32;7.65;;;2.65;;
65896;SDS011;52677;50.898;10.854;2023-06-05T04:33:34;10.55;;;3.15;;
65896;SDS011;52677;50.898;10.854;2023-06-05T04:35:34;5.53;;;2.30;;
65896;SDS011;52677;50.898;10.854;2023-06-05T04:37:35;4.97;;;3.22;;
65896;SDS011;52677;50.898;10.854;2023-06-05T04:39:37;5.38;;;3.05;;
65896;SDS011;52677;50.898;10.854;2023-06-05T04:41:37;7.93;;;2.90;;
65896;SDS011;52677;50.898;10.854;2023-06-05T04:43:44;3.80;;;2.58;;
65896;SDS011;52677;50.898;10.854;2023-06-05T04:45:45;3.78;;;2.58;;
65896;SDS011;52677;50.898;10.854;2023-06-05T04:47:46;4.10;;;2.70;;
65896;SDS011;52677;50.898;10.854;2023-06-05T04:49:46;4.57;;;2.78;;
65896;SDS011;52677;50.898;10.854;2023-06-05T04:51:49;7.60;;;3.47;;
65896;SDS011;52677;50.898;10.854;2023-06-05T04:53:49;6.93;;;3.72;;
65896;SDS011;52677;50.898;10.854;2023-06-05T04:55:50;4.85;;;2.97;;
65896;SDS011;52677;50.898;10.854;2023-06-05T04:57:50;7.03;;;2.80;;
65896;SDS011;52677;50.898;10.854;2023-06-05T04:59:51;5.20;;;3.20;;
65896;SDS011;52677;50.898;10.854;2023-06-05T05:01:52;5.32;;;3.05;;
65896;SDS011;52677;50.898;10.854;2023-06-05T05:03:54;8.25;;;3.33;;
65896;SDS011;52677;50.898;10.854;2023-06-05T05:05:54;5.53;;;3.03;;
65896;SDS011;52677;50.898;10.854;2023-06-05T05:07:55;6.53;;;2.75;;
65896;SDS011;52677;50.898;10.854;2023-06-05T05:09:55;4.22;;;2.75;;
65896;SDS011;52677;50.898;10.854;2023-06-05T05:11:56;6.60;;;2.95;;
65896;SDS011;52677;50.898;10.854;2023-06-05T05:13:57;8.40;;;3.53;;
65896;SDS011;52677;50.898;10.854;2023-06-05T05:15:57;3.97;;;2.88;;
65896;SDS011;52677;50.898;10.854;2023-06-05T05:17:57;8.40;;;3.05;;
65896;SDS011;52677;50.898;10.854;2023-06-05T05:19:58;8.00;;;3.00;;
65896;SDS011;52677;50.898;10.854;2023-06-05T05:21:58;4.97;;;3.00;;
65896;SDS011;52677;50.898;10.854;2023-06-05T05:23:59;11.13;;;3.90;;
65896;SDS011;52677;50.898;10.854;2023-06-05T05:26:00;8.93;;;3.20;;
65896;SDS011;52677;50.898;10.854;2023-06-05T05:28:01;7.28;;;3.17;;
65896;SDS011;52677;50.898;10.854;2023-06-05T05:30:02;7.90;;;3.67;;
65896;SDS011;52677;50.898;10.854;2023-06-05T05:32:02;12.30;;;3.42;;
65896;SDS011;52677;50.898;10.854;2023-06-05T05:34:03;6.95;;;2.72;;
65896;SDS011;52677;50.898;10.854;2023-06-05T05:36:04;6.57;;;3.28;;
65896;SDS011;52677;50.898;10.854;2023-06-05T05:38:04;6.07;;;3.50;;
65896;SDS011;52677;50.898;10.854;2023-06-05T05:40:04;10.18;;;2.90;;
65896;SDS011;52677;50.898;10.854;2023-06-05T05:42:06;8.13;;;2.92;;
65896;SDS011;52677;50.898;10.854;2023-06-05T05:44:07;5.90;;;3.20;;
65896;SDS011;52677;50.898;10.854;2023-06-05T05:46:07;6.68;;;2.80;;
65896;SDS011;52677;50.898;10.854;2023-06-05T05:48:07;5.70;;;2.92;;
65896;SDS011;52677;50.898;10.854;2023-06-05T05:50:08;4.50;;;2.95;;
65896;SDS011;52677;50.898;10.854;2023-06-05T05:52:09;6.13;;;2.85;;
65896;SDS011;52677;50.898;10.854;2023-06-05T05:54:09;3.50;;;2.75;;
65896;SDS011;52677;50.898;10.854;2023-06-05T05:56:09;4.53;;;3.08;;
65896;SDS011;52677;50.898;10.854;2023-06-05T05:58:10;8.70;;;3.00;;
65896;SDS011;52677;50.898;10.854;2023-06-05T06:00:10;6.13;;;2.80;;
65896;SDS011;52677;50.898;10.854;2023-06-05T06:02:12;7.45;;;3.40;;
65896;SDS011;52677;50.898;10.854;2023-06-05T06:04:12;7.13;;;2.80;;
65896;SDS011;52677;50.898;10.854;2023-06-05T06:06:13;8.65;;;3.33;;
65896;SDS011;52677;50.898;10.854;2023-06-05T06:08:13;7.47;;;3.20;;
65896;SDS011;52677;50.898;10.854;2023-06-05T06:10:14;4.32;;;2.80;;
65896;SDS011;52677;50.898;10.854;2023-06-05T06:12:14;4.60;;;2.30;;
65896;SDS011;52677;50.898;10.854;2023-06-05T06:14:15;9.68;;;2.83;;
65896;SDS011;52677;50.898;10.854;2023-06-05T06:16:15;7.03;;;2.80;;
65896;SDS011;52677;50.898;10.854;2023-06-05T06:18:16;8.23;;;3.20;;
65896;SDS011;52677;50.898;10.854;2023-06-05T06:20:16;8.30;;;3.72;;
65896;SDS011;52677;50.898;10.854;2023-06-05T06:22:17;8.80;;;3.35;;
65896;SDS011;52677;50.898;10.854;2023-06-05T06:24:17;10.30;;;3.40;;
65896;SDS011;52677;50.898;10.854;2023-06-05T06:28:21;7.30;;;3.00;;
65896;SDS011;52677;50.898;10.854;2023-06-05T06:30:21;6.40;;;2.85;;
65896;SDS011;52677;50.898;10.854;2023-06-05T06:32:22;7.63;;;3.08;;
65896;SDS011;52677;50.898;10.854;2023-06-05T06:34:23;4.20;;;2.60;;
65896;SDS011;52677;50.898;10.854;2023-06-05T06:36:24;7.03;;;3.03;;
65896;SDS011;52677;50.898;10.854;2023-06-05T06:38:26;6.90;;;3.10;;
65896;SDS011;52677;50.898;10.854;2023-06-05T06:40:30;4.45;;;2.90;;
65896;SDS011;52677;50.898;10.854;2023-06-05T06:42:30;5.15;;;3.47;;
65896;SDS011;52677;50.898;10.854;2023-06-05T06:44:30;8.82;;;3.33;;
65896;SDS011;52677;50.898;10.854;2023-06-05T06:46:31;5.13;;;2.97;;
65896;SDS011;52677;50.898;10.854;2023-06-05T06:48:31;5.40;;;3.20;;
65896;SDS011;52677;50.898;10.854;2023-06-05T06:50:32;8.50;;;3.72;;
65896;SDS011;52677;50.898;10.854;2023-06-05T06:52:32;11.00;;;3.40;;
65896;SDS011;52677;50.898;10.854;2023-06-05T06:54:33;7.13;;;3.30;;
65896;SDS011;52677;50.898;10.854;2023-06-05T06:56:33;7.28;;;3.40;;
65896;SDS011;52677;50.898;10.854;2023-06-05T06:58:33;5.18;;;3.40;;
65896;SDS011;52677;50.898;10.854;2023-06-05T07:00:34;5.45;;;3.53;;
65896;SDS011;52677;50.898;10.854;2023-06-05T07:02:35;9.02;;;3.45;;
65896;SDS011;52677;50.898;10.854;2023-06-05T07:04:36;4.40;;;3.25;;
65896;SDS011;52677;50.898;10.854;2023-06-05T07:06:38;9.63;;;4.00;;
65896;SDS011;52677;50.898;10.854;2023-06-05T07:08:38;6.38;;;3.50;;
65896;SDS011;52677;50.898;10.854;2023-06-05T07:10:39;9.02;;;3.20;;
65896;SDS011;52677;50.898;10.854;2023-06-05T07:12:40;4.47;;;3.03;;
65896;SDS011;52677;50.898;10.854;2023-06-05T07:14:41;5.85;;;3.92;;
65896;SDS011;52677;50.898;10.854;2023-06-05T07:16:41;5.63;;;4.20;;
65896;SDS011;52677;50.898;10.854;2023-06-05T07:18:41;5.53;;;3.40;;
65896;SDS011;52677;50.898;10.854;2023-06-05T07:20:42;7.10;;;3.38;;
65896;SDS011;52677;50.898;10.854;2023-06-05T07:22:43;5.47;;;3.85;;
65896;SDS011;52677;50.898;10.854;2023-06-05T07:26:45;5.82;;;3.70;;
65896;SDS011;52677;50.898;10.854;2023-06-05T07:28:45;4.63;;;3.42;;
65896;SDS011;52677;50.898;10.854;2023-06-05T07:30:49;6.38;;;3.92;;
65896;SDS011;52677;50.898;10.854;2023-06-05T07:32:50;6.72;;;3.67;;
65896;SDS011;52677;50.898;10.854;2023-06-05T07:34:51;6.13;;;3.60;;
65896;SDS011;52677;50.898;10.854;2023-06-05T07:36:52;7.43;;;3.20;;
65896;SDS011;52677;50.898;10.854;2023-06-05T07:38:53;5.22;;;3.47;;
65896;SDS011;52677;50.898;10.854;2023-06-05T07:40:53;5.40;;;3.65;;
65896;SDS011;52677;50.898;10.854;2023-06-05T07:42:53;5.57;;;3.38;;
65896;SDS011;52677;50.898;10.854;2023-06-05T07:44:54;4.53;;;3.00;;
65896;SDS011;52677;50.898;10.854;2023-06-05T07:46:54;6.30;;;3.58;;
65896;SDS011;52677;50.898;10.854;2023-06-05T07:48:54;4.60;;;3.22;;
65896;SDS011;52677;50.898;10.854;2023-06-05T07:50:55;5.25;;;3.40;;
65896;SDS011;52677;50.898;10.854;2023-06-05T07:52:55;5.07;;;3.22;;
65896;SDS011;52677;50.898;10.854;2023-06-05T07:54:55;8.27;;;3.45;;
65896;SDS011;52677;50.898;10.854;2023-06-05T07:56:56;3.90;;;2.97;;
65896;SDS011;52677;50.898;10.854;2023-06-05T07:58:57;3.95;;;3.13;;
65896;SDS011;52677;50.898;10.854;2023-06-05T08:00:57;4.32;;;3.13;;
65896;SDS011;52677;50.898;10.854;2023-06-05T08:02:59;4.15;;;3.15;;
65896;SDS011;52677;50.898;10.854;2023-06-05T08:05:00;6.07;;;3.72;;
65896;SDS011;52677;50.898;10.854;2023-06-05T08:07:00;4.65;;;2.95;;
65896;SDS011;52677;50.898;10.854;2023-06-05T08:09:01;6.53;;;3.17;;
65896;SDS011;52677;50.898;10.854;2023-06-05T08:11:02;8.27;;;3.13;;
65896;SDS011;52677;50.898;10.854;2023-06-05T08:13:02;3.33;;;2.72;;
65896;SDS011;52677;50.898;10.854;2023-06-05T08:15:03;4.35;;;2.38;;
65896;SDS011;52677;50.898;10.854;2023-06-05T08:17:04;7.18;;;2.95;;
65896;SDS011;52677;50.898;10.854;2023-06-05T08:19:04;5.40;;;2.88;;
65896;SDS011;52677;50.898;10.854;2023-06-05T08:21:05;4.68;;;2.25;;
65896;SDS011;52677;50.898;10.854;2023-06-05T08:23:06;5.07;;;2.45;;
65896;SDS011;52677;50.898;10.854;2023-06-05T08:25:06;6.78;;;2.97;;
65896;SDS011;52677;50.898;10.854;2023-06-05T08:27:07;8.32;;;3.15;;
65896;SDS011;52677;50.898;10.854;2023-06-05T08:29:07;7.78;;;3.10;;
65896;SDS011;52677;50.898;10.854;2023-06-05T08:31:08;5.50;;;2.80;;
65896;SDS011;52677;50.898;10.854;2023-06-05T08:33:09;2.65;;;2.08;;
65896;SDS011;52677;50.898;10.854;2023-06-05T08:35:10;3.65;;;2.13;;
65896;SDS011;52677;50.898;10.854;2023-06-05T08:37:12;3.20;;;2.47;;
65896;SDS011;52677;50.898;10.854;2023-06-05T08:39:12;3.70;;;2.42;;
65896;SDS011;52677;50.898;10.854;2023-06-05T08:41:13;5.80;;;3.00;;
65896;SDS011;52677;50.898;10.854;2023-06-05T08:45:16;4.57;;;2.65;;
65896;SDS011;52677;50.898;10.854;2023-06-05T08:47:16;6.60;;;2.80;;
65896;SDS011;52677;50.898;10.854;2023-06-05T08:49:17;6.18;;;2.55;;
65896;SDS011;52677;50.898;10.854;2023-06-05T08:51:21;4.63;;;2.90;;
65896;SDS011;52677;50.898;10.854;2023-06-05T08:53:22;4.57;;;2.88;;
65896;SDS011;52677;50.898;10.854;2023-06-05T08:55:28;4.25;;;2.53;;
65896;SDS011;52677;50.898;10.854;2023-06-05T08:57:29;6.25;;;2.50;;
65896;SDS011;52677;50.898;10.854;2023-06-05T08:59:30;4.68;;;2.70;;
65896;SDS011;52677;50.898;10.854;2023-06-05T09:01:31;4.03;;;2.83;;
65896;SDS011;52677;50.898;10.854;2023-06-05T09:03:33;5.93;;;2.88;;
65896;SDS011;52677;50.898;10.854;2023-06-05T09:05:33;5.55;;;2.47;;
65896;SDS011;52677;50.898;10.854;2023-06-05T09:07:33;4.93;;;2.60;;
65896;SDS011;52677;50.898;10.854;2023-06-05T09:09:34;4.95;;;3.03;;
65896;SDS011;52677;50.898;10.854;2023-06-05T09:11:35;6.65;;;3.08;;
65896;SDS011;52677;50.898;10.854;2023-06-05T09:13:44;5.22;;;3.05;;
65896;SDS011;52677;50.898;10.854;2023-06-05T09:15:49;10.90;;;3.10;;
65896;SDS011;52677;50.898;10.854;2023-06-05T09:18:03;7.22;;;3.10;;
65896;SDS011;52677;50.898;10.854;2023-06-05T09:20:08;5.22;;;3.00;;
65896;SDS011;52677;50.898;10.854;2023-06-05T09:22:33;9.10;;;3.20;;
65896;SDS011;52677;50.898;10.854;2023-06-05T09:24:34;5.47;;;2.60;;
65896;SDS011;52677;50.898;10.854;2023-06-05T09:26:48;5.35;;;2.88;;
65896;SDS011;52677;50.898;10.854;2023-06-05T09:29:04;6.95;;;2.88;;
65896;SDS011;52677;50.898;10.854;2023-06-05T09:31:05;6.95;;;2.97;;
65896;SDS011;52677;50.898;10.854;2023-06-05T09:33:09;8.85;;;2.80;;
65896;SDS011;52677;50.898;10.854;2023-06-05T09:35:09;6.78;;;2.90;;
65896;SDS011;52677;50.898;10.854;2023-06-05T09:37:16;3.05;;;2.38;;
65896;SDS011;52677;50.898;10.854;2023-06-05T09:39:17;4.13;;;2.75;;
65896;SDS011;52677;50.898;10.854;2023-06-05T09:43:23;5.78;;;2.88;;
65896;SDS011;52677;50.898;10.854;2023-06-05T09:45:25;4.55;;;3.20;;
65896;SDS011;52677;50.898;10.854;2023-06-05T09:47:41;5.00;;;2.65;;
65896;SDS011;52677;50.898;10.854;2023-06-05T09:51:45;12.55;;;2.70;;
65896;SDS011;52677;50.898;10.854;2023-06-05T09:53:47;2.80;;;2.28;;
65896;SDS011;52677;50.898;10.854;2023-06-05T09:55:49;5.35;;;2.55;;
65896;SDS011;52677;50.898;10.854;2023-06-05T09:57:49;6.45;;;2.55;;
65896;SDS011;52677;50.898;10.854;2023-06-05T09:59:52;6.35;;;2.60;;
65896;SDS011;52677;50.898;10.854;2023-06-05T10:01:56;4.53;;;2.45;;
65896;SDS011;52677;50.898;10.854;2023-06-05T10:03:58;4.20;;;2.38;;
65896;SDS011;52677;50.898;10.854;2023-06-05T10:06:00;5.38;;;2.42;;
65896;SDS011;52677;50.898;10.854;2023-06-05T10:08:02;6.07;;;3.00;;
65896;SDS011;52677;50.898;10.854;2023-06-05T10:10:02;5.15;;;2.65;;
65896;SDS011;52677;50.898;10.854;2023-06-05T10:12:03;4.50;;;2.42;;
65896;SDS011;52677;50.898;10.854;2023-06-05T10:14:04;4.32;;;2.17;;
65896;SDS011;52677;50.898;10.854;2023-06-05T10:16:06;5.10;;;2.63;;
65896;SDS011;52677;50.898;10.854;2023-06-05T10:18:08;3.13;;;2.33;;
65896;SDS011;52677;50.898;10.854;2023-06-05T10:20:08;3.97;;;1.98;;
65896;SDS011;52677;50.898;10.854;2023-06-05T10:22:13;3.20;;;2.22;;
65896;SDS011;52677;50.898;10.854;2023-06-05T10:24:20;5.65;;;2.20;;
65896;SDS011;52677;50.898;10.854;2023-06-05T10:31:53;5.07;;;2.25;;
65896;SDS011;52677;50.898;10.854;2023-06-05T10:34:47;3.25;;;2.22;;
65896;SDS011;52677;50.898;10.854;2023-06-05T10:36:44;6.75;;;2.50;;
65896;SDS011;52677;50.898;10.854;2023-06-05T10:38:48;4.75;;;2.00;;
65896;SDS011;52677;50.898;10.854;2023-06-05T10:40:58;4.57;;;2.22;;
65896;SDS011;52677;50.898;10.854;2023-06-05T10:45:31;5.63;;;2.30;;
65896;SDS011;52677;50.898;10.854;2023-06-05T10:49:32;2.40;;;2.20;;
65896;SDS011;52677;50.898;10.854;2023-06-05T10:53:41;3.63;;;2.38;;
65896;SDS011;52677;50.898;10.854;2023-06-05T10:55:49;4.75;;;2.22;;
65896;SDS011;52677;50.898;10.854;2023-06-05T11:00:05;4.70;;;2.45;;
65896;SDS011;52677;50.898;10.854;2023-06-05T11:04:15;3.10;;;2.25;;
65896;SDS011;52677;50.898;10.854;2023-06-05T11:06:17;4.93;;;2.47;;
65896;SDS011;52677;50.898;10.854;2023-06-05T11:08:17;3.00;;;2.50;;
65896;SDS011;52677;50.898;10.854;2023-06-05T11:10:20;5.32;;;2.20;;
65896;SDS011;52677;50.898;10.854;2023-06-05T11:12:21;5.45;;;2.35;;
65896;SDS011;52677;50.898;10.854;2023-06-05T11:14:21;3.35;;;2.42;;
65896;SDS011;52677;50.898;10.854;2023-06-05T11:16:25;4.32;;;2.22;;
65896;SDS011;52677;50.898;10.854;2023-06-05T11:18:30;4.25;;;2.30;;
65896;SDS011;52677;50.898;10.854;2023-06-05T11:22:32;8.23;;;2.40;;
65896;SDS011;52677;50.898;10.854;2023-06-05T11:24:32;4.95;;;2.55;;
65896;SDS011;52677;50.898;10.854;2023-06-05T11:26:43;6.05;;;2.50;;
65896;SDS011;52677;50.898;10.854;2023-06-05T11:28:43;4.93;;;2.50;;
65896;SDS011;52677;50.898;10.854;2023-06-05T11:30:44;7.10;;;2.65;;
65896;SDS011;52677;50.898;10.854;2023-06-05T11:32:45;3.45;;;2.70;;
65896;SDS011;52677;50.898;10.854;2023-06-05T11:34:46;5.82;;;2.60;;
65896;SDS011;52677;50.898;10.854;2023-06-05T11:36:47;4.03;;;2.70;;
65896;SDS011;52677;50.898;10.854;2023-06-05T11:38:54;4.10;;;2.60;;
65896;SDS011;52677;50.898;10.854;2023-06-05T11:40:58;7.97;;;2.88;;
65896;SDS011;52677;50.898;10.854;2023-06-05T11:43:02;4.72;;;2.65;;
65896;SDS011;52677;50.898;10.854;2023-06-05T11:45:10;4.03;;;2.88;;
65896;SDS011;52677;50.898;10.854;2023-06-05T11:47:21;3.47;;;2.50;;
65896;SDS011;52677;50.898;10.854;2023-06-05T11:49:26;3.53;;;2.10;;
65896;SDS011;52677;50.898;10.854;2023-06-05T11:51:32;3.35;;;2.45;;
65896;SDS011;52677;50.898;10.854;2023-06-05T11:53:33;4.40;;;3.08;;
65896;SDS011;52677;50.898;10.854;2023-06-05T11:55:34;7.32;;;2.47;;
65896;SDS011;52677;50.898;10.854;2023-06-05T11:57:55;5.85;;;2.78;;
65896;SDS011;52677;50.898;10.854;2023-06-05T11:59:55;6.13;;;2.67;;
65896;SDS011;52677;50.898;10.854;2023-06-05T12:01:56;3.88;;;2.97;;
65896;SDS011;52677;50.898;10.854;2023-06-05T12:04:03;4.25;;;2.60;;
65896;SDS011;52677;50.898;10.854;2023-06-05T12:06:05;5.65;;;2.95;;
65896;SDS011;52677;50.898;10.854;2023-06-05T12:08:21;3.08;;;2.60;;
65896;SDS011;52677;50.898;10.854;2023-06-05T12:10:32;4.25;;;2.30;;
65896;SDS011;52677;50.898;10.854;2023-06-05T12:12:49;7.30;;;2.45;;
65896;SDS011;52677;50.898;10.854;2023-06-05T12:14:50;6.10;;;3.15;;
65896;SDS011;52677;50.898;10.854;2023-06-05T12:16:51;5.35;;;2.85;;
65896;SDS011;52677;50.898;10.854;2023-06-05T12:18:51;3.53;;;2.67;;
65896;SDS011;52677;50.898;10.854;2023-06-05T12:20:51;3.65;;;2.67;;
65896;SDS011;52677;50.898;10.854;2023-06-05T12:22:52;5.63;;;2.50;;
65896;SDS011;52677;50.898;10.854;2023-06-05T12:24:52;6.63;;;3.45;;
65896;SDS011;52677;50.898;10.854;2023-06-05T12:29:02;6.78;;;2.60;;
65896;SDS011;52677;50.898;10.854;2023-06-05T12:31:06;4.20;;;2.95;;
65896;SDS011;52677;50.898;10.854;2023-06-05T12:33:07;6.22;;;2.80;;
65896;SDS011;52677;50.898;10.854;2023-06-05T12:35:20;5.75;;;2.53;;
65896;SDS011;52677;50.898;10.854;2023-06-05T12:37:22;6.68;;;2.78;;
65896;SDS011;52677;50.898;10.854;2023-06-05T12:39:31;4.43;;;3.10;;